Hollis, North Carolina
Current Conditions -  °F | °C
As of 4:35 AM on Tuesday 21 Oct 2014 (Local Time) from KFQD Reporting Station
Scattered Clouds Scattered Clouds  
Wind Chill: 49°   Ceiling: Unl
Heat Index: 49°   Visibility: 7mi
Dew Point: 49°   Wind: 0mph
Humidity: 100%   Direction: NA
Pressure: 29.96"   Gusts: NA
Location:  35.3839°N, 81.7531°W
Report Text: KFQD 210835Z AUTO 00000KT 7SM SCT003 10/10 A2996 RMK AO2 T00970097
Loading
Personal Weather Stations






























Interactive Weather Map
Tropical Storm Tracking
New forecast layout! Learn more

10-Day Weather Forecast

Advertisements
Track Severe Weather on mobile